createdAt,value
2017-10-30T00:00:42.193Z,1017.56
2017-10-30T00:01:51.171Z,1017.55
2017-10-30T00:03:00.552Z,1017.51
2017-10-30T00:04:09.881Z,1017.53
2017-10-30T00:05:18.527Z,1017.49
2017-10-30T00:06:27.572Z,1017.51
2017-10-30T00:07:37.204Z,1017.52
2017-10-30T00:08:46.184Z,1017.52
2017-10-30T00:09:55.818Z,1017.59
2017-10-30T00:11:05.118Z,1017.62
2017-10-30T00:12:14.100Z,1017.62
2017-10-30T00:13:23.084Z,1017.6
2017-10-30T00:14:31.759Z,1017.6
2017-10-30T00:15:40.411Z,1017.61
2017-10-30T00:16:49.404Z,1017.61
2017-10-30T00:17:58.481Z,1017.61
2017-10-30T00:19:07.790Z,1017.64
2017-10-30T00:20:16.452Z,1017.6
2017-10-30T00:21:25.111Z,1017.66
2017-10-30T00:22:34.108Z,1017.68
2017-10-30T00:23:43.774Z,1017.7
2017-10-30T00:24:53.404Z,1017.69
2017-10-30T00:26:02.391Z,1017.7
2017-10-30T00:27:11.703Z,1017.71
2017-10-30T00:28:20.352Z,1017.72
2017-10-30T00:29:29.351Z,1017.67
2017-10-30T00:30:37.994Z,1017.7
2017-10-30T00:31:46.648Z,1017.68
2017-10-30T00:32:55.637Z,1017.73
2017-10-30T00:34:04.940Z,1017.76
2017-10-30T00:35:13.923Z,1017.77
2017-10-30T00:36:23.232Z,1017.77
2017-10-30T00:37:32.220Z,1017.79
2017-10-30T00:38:40.879Z,1017.83
2017-10-30T00:39:49.594Z,1017.83
2017-10-30T00:40:58.588Z,1017.83
2017-10-30T00:42:07.716Z,1017.83
2017-10-30T00:43:17.371Z,1017.83
2017-10-30T00:44:26.376Z,1017.83
2017-10-30T00:45:35.353Z,1017.87
2017-10-30T00:46:44.331Z,1017.83
2017-10-30T00:47:53.078Z,1017.84
2017-10-30T00:49:02.377Z,1017.84
2017-10-30T00:50:11.061Z,1017.85
2017-10-30T00:51:20.392Z,1017.84
2017-10-30T00:52:30.345Z,1017.88
2017-10-30T00:53:39.321Z,1017.87
2017-10-30T00:54:48.623Z,1017.86
2017-10-30T00:55:57.612Z,1017.87
2017-10-30T00:57:06.913Z,1017.88
2017-10-30T00:58:16.552Z,1017.84
2017-10-30T00:59:26.188Z,1017.89
2017-10-30T01:00:35.490Z,1017.85
2017-10-30T01:01:44.811Z,1017.83
2017-10-30T01:02:54.143Z,1017.83
2017-10-30T01:04:03.444Z,1017.85
2017-10-30T01:05:12.417Z,1017.82
2017-10-30T01:06:21.077Z,1017.85
2017-10-30T01:07:30.372Z,1017.87
2017-10-30T01:08:39.019Z,1017.92
2017-10-30T01:09:48.334Z,1017.91
2017-10-30T01:10:57.629Z,1017.93
2017-10-30T01:12:06.621Z,1017.97
2017-10-30T01:13:15.594Z,1017.95
2017-10-30T01:14:24.238Z,1017.9
2017-10-30T01:15:33.553Z,1017.94
2017-10-30T01:16:42.529Z,1017.93
2017-10-30T01:17:51.515Z,1017.93
2017-10-30T01:19:01.520Z,1017.95
2017-10-30T01:20:11.169Z,1017.95
2017-10-30T01:21:19.826Z,1017.98
2017-10-30T01:22:28.820Z,1017.98
2017-10-30T01:23:38.129Z,1017.97
2017-10-30T01:24:46.810Z,1017.9
2017-10-30T01:25:55.798Z,1017.94
2017-10-30T01:27:05.126Z,1017.91
2017-10-30T01:28:14.435Z,1017.95
2017-10-30T01:29:23.088Z,1017.94
2017-10-30T01:30:31.767Z,1017.95
2017-10-30T01:31:41.055Z,1017.93
2017-10-30T01:32:50.049Z,1017.93
2017-10-30T01:33:59.132Z,1017.94
2017-10-30T01:35:08.464Z,1017.94
2017-10-30T01:36:17.132Z,1017.97
2017-10-30T01:37:26.143Z,1017.99
2017-10-30T01:38:35.439Z,1017.97
2017-10-30T01:39:44.431Z,1017.98
2017-10-30T01:40:53.741Z,1017.94
2017-10-30T01:42:02.409Z,1017.97
2017-10-30T01:43:11.405Z,1017.95
2017-10-30T01:44:20.124Z,1017.96
2017-10-30T01:45:29.220Z,1017.95
2017-10-30T01:46:38.528Z,1017.95
2017-10-30T01:47:47.175Z,1018
2017-10-30T01:48:55.849Z,1017.97
2017-10-30T01:50:04.497Z,1017.98
2017-10-30T01:51:13.826Z,1018.01
2017-10-30T01:52:22.796Z,1018.05
2017-10-30T01:53:32.424Z,1018.02
2017-10-30T01:54:41.443Z,1018.01
2017-10-30T01:55:50.428Z,1017.99
2017-10-30T01:56:59.748Z,1017.97
2017-10-30T01:58:09.386Z,1017.96
2017-10-30T01:59:18.385Z,1017.95
2017-10-30T02:00:27.071Z,1017.97
2017-10-30T02:01:36.381Z,1017.99
2017-10-30T02:02:45.694Z,1017.96
2017-10-30T02:03:54.352Z,1017.97
2017-10-30T02:05:03.671Z,1017.99
2017-10-30T02:06:13.011Z,1018
2017-10-30T02:07:21.991Z,1017.96
2017-10-30T02:08:31.633Z,1017.96
2017-10-30T02:09:40.281Z,1017.95
2017-10-30T02:10:48.945Z,1017.92
2017-10-30T02:11:57.595Z,1017.94
2017-10-30T02:13:06.579Z,1017.91
2017-10-30T02:14:15.562Z,1017.92
2017-10-30T02:15:24.539Z,1017.96
2017-10-30T02:16:33.185Z,1017.98
2017-10-30T02:17:42.167Z,1017.94
2017-10-30T02:18:51.152Z,1017.96
2017-10-30T02:20:00.123Z,1017.98
2017-10-30T02:21:09.460Z,1017.98
2017-10-30T02:22:18.789Z,1017.96
2017-10-30T02:23:27.757Z,1017.96
2017-10-30T02:24:36.790Z,1017.95
2017-10-30T02:25:45.774Z,1017.98
2017-10-30T02:26:54.422Z,1017.92
2017-10-30T02:28:03.748Z,1018.03
2017-10-30T02:29:13.064Z,1018.04
2017-10-30T02:30:22.052Z,1018.04
2017-10-30T02:31:31.028Z,1018.04
2017-10-30T02:32:40.026Z,1018.01
2017-10-30T02:33:48.691Z,1018
2017-10-30T02:34:57.342Z,1018.05
2017-10-30T02:36:06.336Z,1018.04
2017-10-30T02:37:15.323Z,1018.08
2017-10-30T02:38:24.346Z,1018.06
2017-10-30T02:39:33.336Z,1018.09
2017-10-30T02:40:42.994Z,1018.12
2017-10-30T02:41:51.663Z,1018.13
2017-10-30T02:43:00.626Z,1018.17
2017-10-30T02:44:09.983Z,1018.18
2017-10-30T02:45:19.300Z,1018.19
2017-10-30T02:46:28.271Z,1018.17
2017-10-30T02:47:37.255Z,1018.26
2017-10-30T02:48:46.910Z,1018.21
2017-10-30T02:49:55.565Z,1018.27
2017-10-30T02:51:04.880Z,1018.25
2017-10-30T02:52:14.231Z,1018.31
2017-10-30T02:53:23.241Z,1018.34
2017-10-30T02:54:32.333Z,1018.3
2017-10-30T02:55:41.644Z,1018.33
2017-10-30T02:56:51.280Z,1018.36
2017-10-30T02:58:00.265Z,1018.35
2017-10-30T02:59:09.571Z,1018.41
2017-10-30T03:00:19.240Z,1018.39
2017-10-30T03:01:28.553Z,1018.37
2017-10-30T03:02:37.517Z,1018.38
2017-10-30T03:03:46.910Z,1018.37
2017-10-30T03:04:55.582Z,1018.38
2017-10-30T03:06:04.909Z,1018.35
2017-10-30T03:07:13.895Z,1018.38
2017-10-30T03:08:23.515Z,1018.38
2017-10-30T03:09:32.495Z,1018.44
2017-10-30T03:10:41.208Z,1018.47
2017-10-30T03:11:50.508Z,1018.48
2017-10-30T03:13:00.148Z,1018.47
2017-10-30T03:14:09.449Z,1018.49
2017-10-30T03:15:19.090Z,1018.54
2017-10-30T03:16:28.095Z,1018.57
2017-10-30T03:17:37.107Z,1018.57
2017-10-30T03:18:45.756Z,1018.58
2017-10-30T03:19:54.733Z,1018.6
2017-10-30T03:21:04.057Z,1018.62
2017-10-30T03:22:13.360Z,1018.57
2017-10-30T03:23:22.354Z,1018.6
2017-10-30T03:24:32.003Z,1018.63
2017-10-30T03:25:40.987Z,1018.61
2017-10-30T03:26:50.279Z,1018.58
2017-10-30T03:27:58.941Z,1018.65
2017-10-30T03:29:09.001Z,1018.68
2017-10-30T03:30:18.307Z,1018.7
2017-10-30T03:31:27.632Z,1018.73
2017-10-30T03:32:36.940Z,1018.72
2017-10-30T03:33:46.030Z,1018.78
2017-10-30T03:34:55.006Z,1018.76
2017-10-30T03:36:03.995Z,1018.75
2017-10-30T03:37:13.309Z,1018.77
2017-10-30T03:38:22.284Z,1018.75
2017-10-30T03:39:31.587Z,1018.8
2017-10-30T03:40:40.568Z,1018.74
2017-10-30T03:41:49.239Z,1018.74
2017-10-30T03:42:58.562Z,1018.76
2017-10-30T03:44:07.219Z,1018.78
2017-10-30T03:45:16.541Z,1018.82
2017-10-30T03:46:25.523Z,1018.84
2017-10-30T03:47:34.501Z,1018.84
2017-10-30T03:48:44.140Z,1018.87
2017-10-30T03:49:53.183Z,1018.91
2017-10-30T03:51:02.148Z,1018.92
2017-10-30T03:52:11.127Z,1018.93
2017-10-30T03:53:20.099Z,1018.93
2017-10-30T03:54:29.090Z,1018.93
2017-10-30T03:55:37.749Z,1018.98
2017-10-30T03:56:47.704Z,1018.95
2017-10-30T03:57:57.364Z,1018.97
2017-10-30T03:59:06.011Z,1019
2017-10-30T04:00:14.662Z,1018.99
2017-10-30T04:01:23.312Z,1018.99
2017-10-30T04:02:32.626Z,1019.04
2017-10-30T04:03:42.264Z,1019.07
2017-10-30T04:04:51.245Z,1019
2017-10-30T04:06:00.220Z,1019.01
2017-10-30T04:07:08.865Z,1019.02
2017-10-30T04:08:17.856Z,1019.05
2017-10-30T04:09:27.483Z,1019.04
2017-10-30T04:10:36.134Z,1019.07
2017-10-30T04:11:44.773Z,1019.07
2017-10-30T04:12:54.436Z,1019.12
2017-10-30T04:14:04.075Z,1019.19
2017-10-30T04:15:13.480Z,1019.17
2017-10-30T04:16:22.456Z,1019.16
2017-10-30T04:17:31.462Z,1019.17
2017-10-30T04:18:40.441Z,1019.2
2017-10-30T04:19:49.423Z,1019.2
2017-10-30T04:20:58.404Z,1019.16
2017-10-30T04:22:07.721Z,1019.14
2017-10-30T04:23:16.382Z,1019.13
2017-10-30T04:24:25.686Z,1019.21
2017-10-30T04:25:34.346Z,1019.21
2017-10-30T04:26:43.327Z,1019.27
2017-10-30T04:27:52.314Z,1019.23
2017-10-30T04:29:01.625Z,1019.29
2017-10-30T04:30:10.602Z,1019.29
2017-10-30T04:31:19.612Z,1019.27
2017-10-30T04:32:28.591Z,1019.25
2017-10-30T04:33:37.902Z,1019.26
2017-10-30T04:34:46.871Z,1019.26
2017-10-30T04:35:55.852Z,1019.27
2017-10-30T04:37:05.494Z,1019.25
2017-10-30T04:38:14.815Z,1019.25
2017-10-30T04:39:23.506Z,1019.26
2017-10-30T04:40:32.153Z,1019.28
2017-10-30T04:41:41.490Z,1019.3
2017-10-30T04:42:50.468Z,1019.31
2017-10-30T04:43:59.144Z,1019.28
2017-10-30T04:45:07.795Z,1019.32
2017-10-30T04:46:16.447Z,1019.32
2017-10-30T04:47:25.095Z,1019.35
2017-10-30T04:48:34.069Z,1019.42
2017-10-30T04:49:43.156Z,1019.43
2017-10-30T04:50:51.841Z,1019.43
2017-10-30T04:52:00.834Z,1019.53
2017-10-30T04:53:09.815Z,1019.49
2017-10-30T04:54:18.807Z,1019.45
2017-10-30T04:55:28.109Z,1019.51
2017-10-30T04:56:36.787Z,1019.48
2017-10-30T04:57:45.764Z,1019.5
2017-10-30T04:58:54.432Z,1019.51
2017-10-30T05:00:03.427Z,1019.51
2017-10-30T05:01:13.081Z,1019.54
2017-10-30T05:02:21.802Z,1019.54
2017-10-30T05:03:31.098Z,1019.57
2017-10-30T05:04:39.752Z,1019.6
2017-10-30T05:05:48.723Z,1019.61
2017-10-30T05:06:58.023Z,1019.59
2017-10-30T05:08:06.655Z,1019.59
2017-10-30T05:09:15.972Z,1019.59
2017-10-30T05:10:24.952Z,1019.65
2017-10-30T05:15:20.359Z,1019.7
2017-10-30T05:16:29.335Z,1019.75
2017-10-30T05:17:38.310Z,1019.78
2017-10-30T05:18:46.972Z,1019.79
2017-10-30T05:19:56.600Z,1019.8
2017-10-30T05:21:05.572Z,1019.75
2017-10-30T05:22:14.897Z,1019.75
2017-10-30T05:23:24.176Z,1019.77
2017-10-30T05:24:33.523Z,1019.77
2017-10-30T05:25:42.274Z,1019.74
2017-10-30T05:26:51.576Z,1019.75
2017-10-30T05:28:01.251Z,1019.76
2017-10-30T05:29:10.575Z,1019.67
2017-10-30T05:30:19.575Z,1019.71
2017-10-30T05:31:28.892Z,1019.69
2017-10-30T05:32:37.545Z,1019.69
2017-10-30T05:33:46.521Z,1019.73
2017-10-30T05:34:55.180Z,1019.74
2017-10-30T05:36:04.207Z,1019.77
2017-10-30T05:37:12.869Z,1019.79
2017-10-30T05:38:22.528Z,1019.8
2017-10-30T05:39:31.517Z,1019.85
2017-10-30T05:40:41.147Z,1019.84
2017-10-30T05:41:51.106Z,1019.85
2017-10-30T05:43:00.102Z,1019.86
2017-10-30T05:44:09.733Z,1019.83
2017-10-30T05:45:18.380Z,1019.86
2017-10-30T05:46:27.107Z,1019.82
2017-10-30T05:47:36.429Z,1019.86
2017-10-30T05:48:45.097Z,1019.84
2017-10-30T05:49:54.417Z,1019.87
2017-10-30T05:51:03.061Z,1019.89
2017-10-30T05:52:11.721Z,1019.92
2017-10-30T05:53:20.693Z,1019.9
2017-10-30T05:54:29.778Z,1019.91
2017-10-30T05:55:39.405Z,1019.89
2017-10-30T05:56:48.695Z,1019.89
2017-10-30T05:57:57.680Z,1019.88
2017-10-30T05:59:06.353Z,1019.88
2017-10-30T06:00:15.331Z,1019.84
2017-10-30T06:01:24.637Z,1019.86
2017-10-30T06:02:33.625Z,1019.93
2017-10-30T06:03:42.606Z,1019.98
2017-10-30T06:04:52.248Z,1019.94
2017-10-30T06:06:01.930Z,1019.93
2017-10-30T06:07:10.919Z,1019.98
2017-10-30T06:08:19.912Z,1019.99
2017-10-30T06:09:28.928Z,1020
2017-10-30T06:10:37.946Z,1020.03
2017-10-30T06:11:47.614Z,1020.04
2017-10-30T06:12:56.629Z,1020
2017-10-30T06:14:05.945Z,1020.07
2017-10-30T06:15:14.922Z,1020.13
2017-10-30T06:16:23.919Z,1020.14
2017-10-30T06:17:32.876Z,1020.16
2017-10-30T06:18:41.861Z,1020.14
2017-10-30T06:19:51.169Z,1020.14
2017-10-30T06:21:00.554Z,1020.14
2017-10-30T06:22:09.225Z,1020.2
2017-10-30T06:23:18.304Z,1020.14
2017-10-30T06:24:26.952Z,1020.17
2017-10-30T06:25:35.609Z,1020.18
2017-10-30T06:26:44.607Z,1020.18
2017-10-30T06:27:53.608Z,1020.19
2017-10-30T06:29:02.589Z,1020.21
2017-10-30T06:30:11.614Z,1020.22
2017-10-30T06:31:20.290Z,1020.21
2017-10-30T06:32:29.291Z,1020.22
2017-10-30T06:33:37.936Z,1020.25
2017-10-30T06:34:46.606Z,1020.26
2017-10-30T06:35:55.269Z,1020.26
2017-10-30T06:37:04.285Z,1020.25
2017-10-30T06:38:13.635Z,1020.28
2017-10-30T06:39:22.618Z,1020.29
2017-10-30T06:40:31.618Z,1020.26
2017-10-30T06:41:40.615Z,1020.27
2017-10-30T06:42:49.946Z,1020.28
2017-10-30T06:43:58.636Z,1020.29
2017-10-30T06:45:07.995Z,1020.36
2017-10-30T06:46:16.669Z,1020.34
2017-10-30T06:47:25.979Z,1020.37
2017-10-30T06:48:34.987Z,1020.33
2017-10-30T06:49:44.329Z,1020.35
2017-10-30T06:50:53.319Z,1020.47
2017-10-30T06:52:03.070Z,1020.42
2017-10-30T06:53:12.416Z,1020.48
2017-10-30T06:54:21.770Z,1020.45
2017-10-30T06:55:30.778Z,1020.44
2017-10-30T06:56:39.454Z,1020.48
2017-10-30T06:57:48.769Z,1020.51
2017-10-30T06:58:58.185Z,1020.56
2017-10-30T07:00:07.219Z,1020.56
2017-10-30T07:01:15.924Z,1020.53
2017-10-30T07:02:24.601Z,1020.57
2017-10-30T07:03:33.596Z,1020.56
2017-10-30T07:04:42.585Z,1020.58
2017-10-30T07:05:51.277Z,1020.61
2017-10-30T07:07:00.012Z,1020.6
2017-10-30T07:08:09.446Z,1020.58
2017-10-30T07:09:18.989Z,1020.6
2017-10-30T07:10:28.641Z,1020.68
2017-10-30T07:11:38.009Z,1020.67
2017-10-30T07:12:46.686Z,1020.68
2017-10-30T07:13:56.049Z,1020.71
2017-10-30T07:15:06.023Z,1020.73
2017-10-30T07:16:14.809Z,1020.74
2017-10-30T07:17:23.810Z,1020.8
2017-10-30T07:18:32.454Z,1020.81
2017-10-30T07:19:41.503Z,1020.87
2017-10-30T07:20:50.607Z,1020.87
2017-10-30T07:21:59.300Z,1020.9
2017-10-30T07:23:08.976Z,1020.89
2017-10-30T07:24:18.657Z,1020.9
2017-10-30T07:25:27.368Z,1020.98
2017-10-30T07:26:36.407Z,1020.95
2017-10-30T07:27:45.762Z,1020.97
2017-10-30T07:28:55.458Z,1020.93
2017-10-30T07:30:04.542Z,1020.95
2017-10-30T07:31:13.196Z,1021
2017-10-30T07:32:22.344Z,1021
2017-10-30T07:33:31.396Z,1021.03
2017-10-30T07:34:40.072Z,1021.05
2017-10-30T07:35:48.779Z,1021.09
2017-10-30T07:36:57.466Z,1021.12
2017-10-30T07:38:06.590Z,1021.1
2017-10-30T07:39:15.584Z,1021.14
2017-10-30T07:40:25.233Z,1021.18
2017-10-30T07:41:34.322Z,1021.22
2017-10-30T07:42:43.656Z,1021.22
2017-10-30T07:43:52.758Z,1021.19
2017-10-30T07:45:01.783Z,1021.24
2017-10-30T07:46:11.109Z,1021.24
2017-10-30T07:47:20.782Z,1021.27
2017-10-30T07:48:30.201Z,1021.26
2017-10-30T07:49:39.902Z,1021.26
2017-10-30T07:50:48.918Z,1021.29
2017-10-30T07:51:58.294Z,1021.24
2017-10-30T07:53:07.384Z,1021.31
2017-10-30T07:54:16.553Z,1021.31
2017-10-30T07:55:25.649Z,1021.3
2017-10-30T07:56:35.004Z,1021.32
2017-10-30T07:57:44.099Z,1021.35
2017-10-30T07:58:53.024Z,1021.32
2017-10-30T08:00:02.180Z,1021.32
2017-10-30T08:01:11.151Z,1021.34
2017-10-30T08:02:20.176Z,1021.4
2017-10-30T08:03:28.822Z,1021.37
2017-10-30T08:04:38.260Z,1021.43
2017-10-30T08:05:47.267Z,1021.42
2017-10-30T08:06:56.032Z,1021.46
2017-10-30T08:08:05.007Z,1021.44
2017-10-30T08:09:13.684Z,1021.43
2017-10-30T08:10:22.358Z,1021.45
2017-10-30T08:11:31.383Z,1021.45
2017-10-30T08:12:40.476Z,1021.45
2017-10-30T08:13:49.785Z,1021.46
2017-10-30T08:14:59.775Z,1021.47
2017-10-30T08:16:08.787Z,1021.47
2017-10-30T08:17:18.343Z,1021.44
2017-10-30T08:18:27.012Z,1021.47
2017-10-30T08:19:36.677Z,1021.49
2017-10-30T08:20:45.346Z,1021.51
2017-10-30T08:21:55.092Z,1021.5
2017-10-30T08:23:04.255Z,1021.54
2017-10-30T08:24:13.375Z,1021.55
2017-10-30T08:25:22.065Z,1021.59
2017-10-30T08:26:31.080Z,1021.57
2017-10-30T08:27:40.408Z,1021.56
2017-10-30T08:28:49.754Z,1021.59
2017-10-30T08:29:59.439Z,1021.56
2017-10-30T08:31:08.803Z,1021.54
2017-10-30T08:32:17.809Z,1021.52
2017-10-30T08:33:26.857Z,1021.59
2017-10-30T08:34:35.947Z,1021.51
2017-10-30T08:35:44.935Z,1021.6
2017-10-30T08:36:53.615Z,1021.55
2017-10-30T08:38:02.963Z,1021.56
2017-10-30T08:39:12.587Z,1021.62
2017-10-30T08:40:21.921Z,1021.62
2017-10-30T08:41:31.238Z,1021.71
2017-10-30T08:42:40.321Z,1021.68
2017-10-30T08:43:49.988Z,1021.72
2017-10-30T08:44:58.679Z,1021.64
2017-10-30T08:46:08.010Z,1021.68
2017-10-30T08:47:16.711Z,1021.66
2017-10-30T08:48:25.743Z,1021.67
2017-10-30T08:49:34.771Z,1021.66
2017-10-30T08:50:43.470Z,1021.64
2017-10-30T08:51:52.188Z,1021.63
2017-10-30T08:53:01.503Z,1021.58
2017-10-30T08:54:11.171Z,1021.61
2017-10-30T08:55:19.850Z,1021.65
2017-10-30T08:56:29.175Z,1021.64
2017-10-30T08:57:38.172Z,1021.62
2017-10-30T08:58:47.636Z,1021.66
2017-10-30T08:59:57.662Z,1021.65
2017-10-30T09:01:07.069Z,1021.71
2017-10-30T09:02:15.728Z,1021.75
2017-10-30T09:03:24.376Z,1021.78
2017-10-30T09:04:33.063Z,1021.74
2017-10-30T09:05:42.071Z,1021.77
2017-10-30T09:06:51.112Z,1021.78
2017-10-30T09:08:00.132Z,1021.77
2017-10-30T09:09:09.147Z,1021.78
2017-10-30T09:10:18.248Z,1021.74
2017-10-30T09:11:26.910Z,1021.8
2017-10-30T09:12:35.968Z,1021.83
2017-10-30T09:13:45.628Z,1021.77
2017-10-30T09:14:54.616Z,1021.82
2017-10-30T09:16:03.931Z,1021.76
2017-10-30T09:17:13.268Z,1021.81
2017-10-30T09:18:22.592Z,1021.81
2017-10-30T09:19:31.587Z,1021.88
2017-10-30T09:20:40.884Z,1021.88
2017-10-30T09:21:49.881Z,1021.9
2017-10-30T09:22:58.945Z,1021.82
2017-10-30T09:24:07.608Z,1021.87
2017-10-30T09:25:17.633Z,1021.89
2017-10-30T09:26:26.691Z,1021.87
2017-10-30T09:27:35.779Z,1021.82
2017-10-30T09:28:44.442Z,1021.85
2017-10-30T09:29:53.786Z,1021.89
2017-10-30T09:31:03.227Z,1021.86
2017-10-30T09:32:12.225Z,1021.85
2017-10-30T09:33:21.931Z,1021.91
2017-10-30T09:34:30.927Z,1021.93
2017-10-30T09:35:40.243Z,1021.94
2017-10-30T09:36:48.898Z,1021.92
2017-10-30T09:37:57.565Z,1021.96
2017-10-30T09:39:06.326Z,1021.95
2017-10-30T09:40:15.338Z,1021.92
2017-10-30T09:41:24.373Z,1021.97
2017-10-30T09:42:33.703Z,1021.94
2017-10-30T09:43:43.764Z,1021.95
2017-10-30T09:44:52.784Z,1021.97
2017-10-30T09:46:01.829Z,1021.95
2017-10-30T09:47:10.602Z,1021.95
2017-10-30T09:48:20.128Z,1021.92
2017-10-30T09:49:28.847Z,1021.96
2017-10-30T09:50:38.198Z,1021.98
2017-10-30T09:51:47.502Z,1021.97
2017-10-30T09:52:56.588Z,1021.94
2017-10-30T09:54:05.348Z,1021.94
2017-10-30T09:55:14.822Z,1021.89
2017-10-30T09:56:23.605Z,1021.94
2017-10-30T09:57:32.921Z,1021.94
2017-10-30T09:58:42.252Z,1021.98
2017-10-30T09:59:51.326Z,1021.97
2017-10-30T10:01:00.716Z,1021.98
2017-10-30T10:02:09.456Z,1021.97
2017-10-30T10:03:18.216Z,1021.98
2017-10-30T10:04:27.097Z,1021.97
2017-10-30T10:05:36.787Z,1021.99
2017-10-30T10:06:45.502Z,1022.01
2017-10-30T10:07:54.698Z,1021.98
2017-10-30T10:09:04.554Z,1022.01
2017-10-30T10:10:13.572Z,1022.05
2017-10-30T10:11:22.687Z,1022.03
2017-10-30T10:12:31.713Z,1022.1
2017-10-30T10:13:40.906Z,1022.13
2017-10-30T10:14:50.553Z,1022.09
2017-10-30T10:15:59.233Z,1022.12
2017-10-30T10:17:07.922Z,1022.08
2017-10-30T10:18:17.913Z,1022.12
2017-10-30T10:19:27.349Z,1022.16
2017-10-30T10:20:36.551Z,1022.13
2017-10-30T10:21:45.345Z,1022.17
2017-10-30T10:22:54.776Z,1022.2
2017-10-30T10:24:03.772Z,1022.18
2017-10-30T10:25:13.578Z,1022.21
2017-10-30T10:26:23.906Z,1022.17
2017-10-30T10:27:32.901Z,1022.15
2017-10-30T10:28:42.567Z,1022.2
2017-10-30T10:29:51.598Z,1022.15
2017-10-30T10:31:00.588Z,1022.15
2017-10-30T10:32:09.585Z,1022.13
2017-10-30T10:33:18.605Z,1022.14
2017-10-30T10:34:27.921Z,1022.17
2017-10-30T10:35:36.974Z,1022.18
2017-10-30T10:36:45.967Z,1022.16
2017-10-30T10:37:55.394Z,1022.2
2017-10-30T10:39:04.105Z,1022.18
2017-10-30T10:40:13.097Z,1022.14
2017-10-30T10:41:22.287Z,1022.18
2017-10-30T10:42:31.937Z,1022.2
2017-10-30T10:43:41.262Z,1022.24
2017-10-30T10:44:50.902Z,1022.22
2017-10-30T10:45:59.581Z,1022.22
2017-10-30T10:47:08.927Z,1022.2
2017-10-30T10:48:17.926Z,1022.18
2017-10-30T10:49:26.951Z,1022.18
2017-10-30T10:50:36.292Z,1022.18
2017-10-30T10:51:44.957Z,1022.15
2017-10-30T10:52:53.617Z,1022.19
2017-10-30T10:54:02.628Z,1022.19
2017-10-30T10:55:11.336Z,1022.18
2017-10-30T10:56:20.321Z,1022.15
2017-10-30T10:57:28.988Z,1022.16
2017-10-30T10:58:38.417Z,1022.18
2017-10-30T10:59:47.165Z,1022.17
2017-10-30T11:00:56.509Z,1022.19
2017-10-30T11:02:05.891Z,1022.17
2017-10-30T11:03:15.206Z,1022.15
2017-10-30T11:04:24.204Z,1022.16
2017-10-30T11:05:33.320Z,1022.17
2017-10-30T11:06:42.651Z,1022.18
2017-10-30T11:07:51.312Z,1022.18
2017-10-30T11:09:00.967Z,1022.2
2017-10-30T11:10:10.270Z,1022.15
2017-10-30T11:11:20.169Z,1022.22
2017-10-30T11:12:29.324Z,1022.22
2017-10-30T11:13:38.325Z,1022.2
2017-10-30T11:14:47.313Z,1022.23
2017-10-30T11:15:56.334Z,1022.26
2017-10-30T11:17:05.757Z,1022.28
2017-10-30T11:18:14.771Z,1022.32
2017-10-30T11:19:24.850Z,1022.29
2017-10-30T11:20:33.938Z,1022.34
2017-10-30T11:21:42.914Z,1022.33
2017-10-30T11:22:52.004Z,1022.33
2017-10-30T11:24:01.004Z,1022.29
2017-10-30T11:25:09.764Z,1022.38
2017-10-30T11:26:18.857Z,1022.29
2017-10-30T11:27:27.584Z,1022.34
2017-10-30T11:28:36.682Z,1022.31
2017-10-30T11:29:45.364Z,1022.34
2017-10-30T11:30:54.411Z,1022.33
2017-10-30T11:32:03.738Z,1022.3
2017-10-30T11:33:12.884Z,1022.35
2017-10-30T11:34:22.189Z,1022.37
2017-10-30T11:35:31.508Z,1022.38
2017-10-30T11:36:40.821Z,1022.34
2017-10-30T11:37:49.837Z,1022.37
2017-10-30T11:38:58.893Z,1022.38
2017-10-30T11:40:07.557Z,1022.39
2017-10-30T11:41:16.566Z,1022.39
2017-10-30T11:42:25.901Z,1022.34
2017-10-30T11:43:35.228Z,1022.32
2017-10-30T11:44:44.908Z,1022.38
2017-10-30T11:45:53.596Z,1022.34
2017-10-30T11:47:02.599Z,1022.35
2017-10-30T11:48:11.617Z,1022.35
2017-10-30T11:49:20.612Z,1022.31
2017-10-30T11:50:29.279Z,1022.32
2017-10-30T11:51:38.301Z,1022.32
2017-10-30T11:52:46.969Z,1022.32
2017-10-30T11:53:55.967Z,1022.37
2017-10-30T11:55:05.278Z,1022.35
2017-10-30T11:56:14.660Z,1022.37
2017-10-30T11:57:23.702Z,1022.36
2017-10-30T11:58:32.716Z,1022.39
2017-10-30T11:59:42.061Z,1022.43
2017-10-30T12:00:51.078Z,1022.46
2017-10-30T12:02:00.079Z,1022.44
2017-10-30T12:03:09.475Z,1022.49
2017-10-30T12:04:18.152Z,1022.48
2017-10-30T12:05:26.920Z,1022.47
2017-10-30T12:06:36.544Z,1022.43
2017-10-30T12:07:45.201Z,1022.43
2017-10-30T12:08:54.581Z,1022.43
2017-10-30T12:10:03.258Z,1022.42
2017-10-30T12:11:11.935Z,1022.42
2017-10-30T12:12:21.613Z,1022.45
2017-10-30T12:13:30.274Z,1022.42
2017-10-30T12:14:38.935Z,1022.4
2017-10-30T12:15:48.245Z,1022.45
2017-10-30T12:16:57.565Z,1022.42
2017-10-30T12:18:06.869Z,1022.42
2017-10-30T12:19:15.875Z,1022.43
2017-10-30T12:20:24.532Z,1022.44
2017-10-30T12:21:33.194Z,1022.44
2017-10-30T12:22:42.201Z,1022.46
2017-10-30T12:23:50.867Z,1022.45
2017-10-30T12:24:59.532Z,1022.45
2017-10-30T12:26:08.863Z,1022.45
2017-10-30T12:27:17.933Z,1022.42
2017-10-30T12:28:26.611Z,1022.45
2017-10-30T12:29:35.300Z,1022.48
2017-10-30T12:30:43.958Z,1022.5
2017-10-30T12:31:53.357Z,1022.45
2017-10-30T12:33:02.414Z,1022.43
2017-10-30T12:34:11.451Z,1022.44
2017-10-30T12:35:20.117Z,1022.48
2017-10-30T12:36:28.801Z,1022.46
2017-10-30T12:37:38.118Z,1022.47
2017-10-30T12:38:47.444Z,1022.46
2017-10-30T12:39:57.097Z,1022.45
2017-10-30T12:41:06.425Z,1022.43
2017-10-30T12:42:15.420Z,1022.41
2017-10-30T12:43:24.748Z,1022.4
2017-10-30T12:44:33.763Z,1022.49
2017-10-30T12:45:43.396Z,1022.5
2017-10-30T12:46:52.416Z,1022.46
2017-10-30T12:48:01.738Z,1022.45
2017-10-30T12:49:10.737Z,1022.48
2017-10-30T12:50:19.729Z,1022.47
2017-10-30T12:51:29.719Z,1022.43
2017-10-30T12:52:38.454Z,1022.45
2017-10-30T12:53:47.126Z,1022.41
2017-10-30T12:54:56.457Z,1022.38
2017-10-30T12:56:05.784Z,1022.44
2017-10-30T12:57:15.088Z,1022.41
2017-10-30T12:58:24.115Z,1022.45
2017-10-30T12:59:33.115Z,1022.43
2017-10-30T13:00:41.879Z,1022.41
2017-10-30T13:01:51.545Z,1022.46
2017-10-30T13:03:00.566Z,1022.42
2017-10-30T13:04:09.554Z,1022.33
2017-10-30T13:05:18.215Z,1022.37
2017-10-30T13:06:27.539Z,1022.34
2017-10-30T13:07:36.216Z,1022.33
2017-10-30T13:08:45.577Z,1022.36
2017-10-30T13:09:54.262Z,1022.34
2017-10-30T13:11:03.257Z,1022.35
2017-10-30T13:12:12.587Z,1022.36
2017-10-30T13:13:22.331Z,1022.37
2017-10-30T13:14:31.658Z,1022.34
2017-10-30T13:15:40.993Z,1022.34
2017-10-30T13:16:49.978Z,1022.38
2017-10-30T13:17:59.001Z,1022.37
2017-10-30T13:19:08.023Z,1022.41
2017-10-30T13:20:17.084Z,1022.41
2017-10-30T13:21:25.811Z,1022.35
2017-10-30T13:22:35.446Z,1022.37
2017-10-30T13:23:44.463Z,1022.41
2017-10-30T13:24:53.446Z,1022.33
2017-10-30T13:26:02.584Z,1022.45
2017-10-30T13:27:11.653Z,1022.48
2017-10-30T13:28:20.976Z,1022.49
2017-10-30T13:29:30.095Z,1022.41
2017-10-30T13:30:39.130Z,1022.42
2017-10-30T13:31:48.112Z,1022.37
2017-10-30T13:32:56.778Z,1022.41
2017-10-30T13:34:05.765Z,1022.38
2017-10-30T13:35:14.749Z,1022.39
2017-10-30T13:36:24.408Z,1022.34
2017-10-30T13:37:34.390Z,1022.38
2017-10-30T13:38:43.702Z,1022.38
2017-10-30T13:39:52.696Z,1022.37
2017-10-30T13:41:02.345Z,1022.32
2017-10-30T13:42:11.358Z,1022.36
2017-10-30T13:43:21.011Z,1022.31
2017-10-30T13:44:30.992Z,1022.32
2017-10-30T13:45:40.622Z,1022.33
2017-10-30T13:46:49.294Z,1022.38
2017-10-30T13:47:58.666Z,1022.35
2017-10-30T13:49:07.983Z,1022.36
2017-10-30T13:50:17.329Z,1022.34
2017-10-30T13:51:26.988Z,1022.36
2017-10-30T13:52:36.140Z,1022.36
2017-10-30T13:53:45.147Z,1022.34
2017-10-30T13:54:54.550Z,1022.39
2017-10-30T13:56:03.879Z,1022.42
2017-10-30T13:57:12.547Z,1022.38
2017-10-30T13:58:21.368Z,1022.42
2017-10-30T13:59:30.407Z,1022.45
2017-10-30T14:00:39.069Z,1022.46
2017-10-30T14:01:47.743Z,1022.47
2017-10-30T14:02:56.744Z,1022.47